Time;durP1;ratioP1;P1;durP2;ratioP2;P2;SDS_P1;SDS_P2;PMS_P1;PMS_P2;Temp;Humidity;BMP_temperature;BMP_pressure;BME280_temperature;BME280_humidity;BME280_pressure;Samples;Min_cycle;Max_cycle;Signal;HPM_P1;HPM_P2
2023/01/05 00:01:37;;;;;;;30.15;7.68;;;9.10;99.90;;;;;;5110827;28;20048;-79
2023/01/05 00:04:23;;;;;;;48.50;7.30;;;9.10;99.90;;;;;;5092775;28;20047;-81
2023/01/05 00:07:10;;;;;;;44.30;6.75;;;9.10;99.90;;;;;;5096866;28;20124;-80
2023/01/05 00:09:56;;;;;;;33.50;5.72;;;9.10;99.90;;;;;;5111012;28;20043;-80
2023/01/05 00:25:08;;;;;;;33.05;7.22;;;9.10;99.90;;;;;;5111476;28;20051;-81
2023/01/05 00:27:55;;;;;;;32.40;6.60;;;9.10;99.90;;;;;;5112267;28;20071;-78
2023/01/05 00:30:45;;;;;;;39.05;7.05;;;9.00;99.90;;;;;;5113016;28;20059;-84
2023/01/05 00:33:32;;;;;;;38.72;5.45;;;9.00;99.90;;;;;;5096974;28;20502;-82
2023/01/05 00:36:18;;;;;;;37.90;6.57;;;9.00;99.90;;;;;;5111843;28;20078;-82
2023/01/05 00:39:04;;;;;;;37.33;6.50;;;9.00;99.90;;;;;;5123365;28;20078;-83
2023/01/05 00:41:50;;;;;;;37.38;5.93;;;9.00;99.90;;;;;;5119660;28;20043;-79
2023/01/05 00:44:36;;;;;;;38.22;7.10;;;9.00;99.90;;;;;;5091388;28;20052;-78
2023/01/05 00:47:22;;;;;;;35.17;5.55;;;9.00;99.90;;;;;;5092175;28;20051;-80
2023/01/05 00:50:12;;;;;;;40.05;8.18;;;9.00;99.90;;;;;;5092314;28;20151;-80
2023/01/05 00:52:58;;;;;;;38.88;5.72;;;9.00;99.90;;;;;;5091079;28;20051;-81
2023/01/05 00:55:54;;;;;;;35.95;7.13;;;9.00;99.90;;;;;;5091664;28;20089;-83
2023/01/05 00:58:40;;;;;;;41.30;6.70;;;9.10;99.90;;;;;;5110355;28;20115;-80
2023/01/05 01:01:26;;;;;;;32.55;6.45;;;9.10;99.90;;;;;;5092275;28;20047;-80
2023/01/05 01:04:12;;;;;;;21.13;5.75;;;9.10;99.90;;;;;;5110250;28;20050;-80
2023/01/05 01:06:59;;;;;;;39.67;7.35;;;9.10;99.90;;;;;;5109008;28;20052;-81
2023/01/05 01:09:45;;;;;;;35.83;6.72;;;9.10;99.90;;;;;;5098490;28;20150;-82
2023/01/05 01:12:31;;;;;;;30.27;6.78;;;9.10;99.90;;;;;;5115222;28;20450;-80
2023/01/05 01:15:18;;;;;;;38.60;7.68;;;9.10;99.90;;;;;;5115008;28;20544;-84
2023/01/05 01:18:04;;;;;;;38.63;5.35;;;9.20;99.90;;;;;;5099767;28;20081;-84
2023/01/05 01:20:50;;;;;;;30.00;5.78;;;9.20;99.90;;;;;;5118840;28;20048;-84
2023/01/05 01:23:36;;;;;;;34.72;5.22;;;9.20;99.90;;;;;;5121784;28;20043;-84
2023/01/05 01:26:22;;;;;;;32.00;7.07;;;9.20;99.90;;;;;;5124206;28;20134;-82
2023/01/05 01:29:09;;;;;;;26.05;5.68;;;9.30;99.90;;;;;;5103622;28;20059;-80
2023/01/05 01:31:55;;;;;;;26.02;4.97;;;9.30;99.90;;;;;;5115944;28;20142;-79
2023/01/05 01:34:41;;;;;;;31.38;5.40;;;9.30;99.90;;;;;;5109262;28;20058;-81
2023/01/05 01:37:27;;;;;;;30.55;7.40;;;9.20;99.90;;;;;;5090679;28;20048;-83
2023/01/05 01:40:14;;;;;;;26.45;7.13;;;9.20;99.90;;;;;;5090380;28;20062;-82
2023/01/05 01:43:00;;;;;;;29.02;5.55;;;9.20;99.90;;;;;;5110720;28;20052;-80
2023/01/05 01:45:46;;;;;;;29.40;5.90;;;9.20;99.90;;;;;;5094822;28;20040;-80
2023/01/05 01:48:34;;;;;;;31.52;4.82;;;9.30;99.90;;;;;;5113889;28;20487;-84
2023/01/05 01:51:30;;;;;;;28.90;4.97;;;9.30;99.90;;;;;;5094715;28;20048;-80
2023/01/05 01:54:17;;;;;;;25.45;5.07;;;9.30;99.90;;;;;;5095961;28;20377;-80
2023/01/05 01:57:03;;;;;;;27.00;5.78;;;9.30;99.90;;;;;;5115759;28;20747;-81
2023/01/05 01:59:50;;;;;;;30.20;4.78;;;9.30;99.90;;;;;;5081997;28;20813;-84
2023/01/05 02:02:36;;;;;;;28.83;5.63;;;9.30;99.90;;;;;;5096905;28;20054;-84
2023/01/05 02:05:29;;;;;;;30.63;5.15;;;9.30;99.90;;;;;;5109673;28;20078;-84
2023/01/05 02:08:24;;;;;;;27.85;4.53;;;9.30;99.90;;;;;;5100815;28;20058;-78
2023/01/05 02:11:34;;;;;;;34.42;6.00;;;9.30;99.90;;;;;;5096643;28;20044;-79
2023/01/05 02:14:50;;;;;;;35.10;6.80;;;9.30;99.90;;;;;;5112917;28;20048;-79
2023/01/05 02:18:15;;;;;;;36.22;6.38;;;9.30;99.90;;;;;;5081342;28;20054;-79
2023/01/05 02:21:17;;;;;;;29.55;4.40;;;9.30;99.90;;;;;;5112774;28;20054;-81
2023/01/05 02:24:21;;;;;;;24.45;4.95;;;9.30;99.90;;;;;;5093816;28;20046;-80
2023/01/05 02:27:24;;;;;;;29.23;5.45;;;9.30;99.90;;;;;;5113757;28;20047;-80
2023/01/05 02:30:38;;;;;;;25.48;5.07;;;9.30;99.90;;;;;;5112610;28;20056;-78
2023/01/05 02:33:32;;;;;;;28.27;4.88;;;9.20;99.90;;;;;;5114556;28;20098;-79
2023/01/05 02:36:52;;;;;;;29.00;5.05;;;9.30;99.90;;;;;;5098392;28;20040;-82
2023/01/05 02:40:02;;;;;;;36.47;6.43;;;9.30;99.90;;;;;;5029907;28;20043;-80
2023/01/05 02:42:51;;;;;;;27.00;4.68;;;9.30;99.90;;;;;;5115463;28;20058;-80
2023/01/05 02:45:38;;;;;;;34.38;6.15;;;9.30;99.90;;;;;;5111576;28;20044;-81
2023/01/05 02:48:24;;;;;;;22.88;4.07;;;9.30;99.90;;;;;;5097431;28;20103;-80
2023/01/05 02:51:17;;;;;;;27.25;5.60;;;9.30;99.90;;;;;;5113363;28;20104;-81
2023/01/05 02:54:14;;;;;;;28.77;5.07;;;9.20;99.90;;;;;;5095470;28;20043;-86
2023/01/05 02:57:46;;;;;;;31.63;6.20;;;9.30;99.90;;;;;;5113413;28;20168;-82
2023/01/05 03:00:38;;;;;;;30.75;5.78;;;9.30;99.90;;;;;;5111480;28;20044;-85
2023/01/05 03:03:44;;;;;;;25.17;5.53;;;9.20;99.90;;;;;;5117308;28;20142;-80
2023/01/05 03:07:05;;;;;;;35.00;6.82;;;9.30;99.90;;;;;;5104859;28;20078;-84
2023/01/05 03:09:51;;;;;;;28.80;5.47;;;9.20;99.90;;;;;;5065959;28;20058;-83
2023/01/05 03:15:44;;;;;;;24.27;5.30;;;9.20;99.90;;;;;;5093951;28;20176;-84
2023/01/05 03:18:32;;;;;;;39.85;6.00;;;9.20;99.90;;;;;;5097519;28;20056;-82
2023/01/05 03:21:18;;;;;;;29.63;6.35;;;9.30;99.90;;;;;;5079851;28;20044;-78
2023/01/05 03:37:07;;;;;;;39.13;9.32;;;9.30;99.90;;;;;;5110988;28;20463;-82
2023/01/05 03:39:53;;;;;;;34.20;5.63;;;9.30;99.90;;;;;;5112860;28;20052;-81
2023/01/05 03:42:41;;;;;;;27.45;4.85;;;9.30;99.90;;;;;;5097472;28;20059;-81
2023/01/05 03:45:37;;;;;;;41.80;6.03;;;9.30;99.90;;;;;;5080217;28;20039;-79
2023/01/05 03:48:26;;;;;;;23.80;5.40;;;9.20;99.90;;;;;;5111323;28;20518;-78
2023/01/05 03:51:15;;;;;;;31.77;5.85;;;9.30;99.90;;;;;;5079844;28;20047;-81
2023/01/05 03:54:01;;;;;;;30.77;7.10;;;9.30;99.90;;;;;;5094259;28;20055;-83
2023/01/05 03:56:47;;;;;;;34.28;6.15;;;9.20;99.90;;;;;;5101308;28;20047;-84
2023/01/05 03:59:33;;;;;;;28.65;5.57;;;9.30;99.90;;;;;;5093070;28;20577;-84
2023/01/05 04:02:19;;;;;;;29.85;5.68;;;9.30;99.90;;;;;;5093830;28;20059;-79
2023/01/05 04:05:06;;;;;;;32.85;6.68;;;9.30;99.90;;;;;;5095853;28;20167;-79
2023/01/05 04:07:52;;;;;;;38.00;7.43;;;9.30;99.90;;;;;;5110620;28;20198;-80
2023/01/05 04:10:38;;;;;;;37.60;6.75;;;9.30;99.90;;;;;;5114140;28;20503;-86
2023/01/05 04:13:24;;;;;;;34.38;6.15;;;9.20;99.90;;;;;;5081521;28;20066;-80
2023/01/05 04:16:11;;;;;;;43.35;9.07;;;9.20;99.90;;;;;;5110164;28;20092;-80
2023/01/05 04:18:57;;;;;;;37.00;6.50;;;9.20;99.90;;;;;;5112025;28;20043;-81
2023/01/05 04:21:43;;;;;;;30.17;6.28;;;9.20;99.90;;;;;;5110534;28;20090;-82
2023/01/05 04:24:29;;;;;;;31.25;6.57;;;9.20;99.90;;;;;;5110914;28;20044;-81
2023/01/05 04:27:15;;;;;;;38.88;7.65;;;9.20;99.90;;;;;;5092885;28;20085;-84
2023/01/05 04:30:02;;;;;;;29.70;6.32;;;9.20;99.90;;;;;;5091257;28;20051;-81
2023/01/05 04:32:48;;;;;;;37.30;8.32;;;9.20;99.90;;;;;;5110785;28;20035;-83
2023/01/05 04:35:34;;;;;;;22.67;5.65;;;9.10;99.90;;;;;;5093646;28;20055;-81
2023/01/05 04:38:21;;;;;;;33.00;6.80;;;9.10;99.90;;;;;;5110410;28;20055;-81
2023/01/05 04:41:07;;;;;;;35.35;7.28;;;9.10;99.90;;;;;;5109940;28;20051;-82
2023/01/05 04:43:53;;;;;;;32.88;6.38;;;9.10;99.90;;;;;;5110100;28;20521;-80
2023/01/05 04:46:39;;;;;;;35.75;6.30;;;9.20;99.90;;;;;;5077949;28;20051;-81
2023/01/05 04:49:25;;;;;;;38.28;6.78;;;9.20;99.90;;;;;;5096711;28;20048;-84
2023/01/05 04:52:11;;;;;;;43.92;6.05;;;9.20;99.90;;;;;;5111671;28;20384;-83
2023/01/05 04:54:57;;;;;;;29.15;6.70;;;9.20;99.90;;;;;;5115820;28;20051;-84
2023/01/05 04:57:44;;;;;;;35.55;6.95;;;9.10;99.90;;;;;;5098768;28;20060;-83
2023/01/05 05:00:30;;;;;;;37.45;6.88;;;9.10;99.90;;;;;;5109084;28;20051;-84
2023/01/05 05:03:17;;;;;;;28.25;5.90;;;9.10;99.90;;;;;;5108971;28;20046;-81
2023/01/05 05:06:03;;;;;;;30.83;5.65;;;9.10;99.90;;;;;;5109370;28;20073;-83
2023/01/05 05:08:49;;;;;;;38.72;8.35;;;9.00;99.90;;;;;;5110562;28;20053;-84
2023/01/05 05:11:35;;;;;;;35.08;7.15;;;9.00;99.90;;;;;;5092422;28;20044;-84
2023/01/05 05:14:22;;;;;;;28.98;5.93;;;9.00;99.90;;;;;;5109453;28;20044;-80
2023/01/05 05:17:08;;;;;;;35.90;6.53;;;9.00;99.90;;;;;;5109860;28;20040;-79
2023/01/05 05:19:54;;;;;;;34.47;6.95;;;9.00;99.90;;;;;;5116611;28;20051;-81
2023/01/05 05:22:40;;;;;;;37.65;6.30;;;9.00;99.90;;;;;;5117092;28;20451;-82
2023/01/05 05:25:26;;;;;;;35.67;6.18;;;9.00;99.90;;;;;;5114439;28;20040;-80
2023/01/05 05:28:12;;;;;;;38.92;7.15;;;9.10;99.90;;;;;;5114171;28;20036;-79
2023/01/05 05:30:59;;;;;;;28.08;6.60;;;9.10;99.90;;;;;;5097836;28;20059;-83
2023/01/05 05:33:45;;;;;;;34.90;7.97;;;9.10;99.90;;;;;;5119464;28;20052;-83
2023/01/05 05:36:32;;;;;;;33.10;6.63;;;9.10;99.90;;;;;;5095142;28;20073;-80
2023/01/05 05:39:19;;;;;;;34.28;5.90;;;9.10;99.90;;;;;;5099261;28;20047;-79
2023/01/05 05:42:05;;;;;;;35.63;7.38;;;9.10;99.90;;;;;;5114558;28;20051;-80
2023/01/05 05:44:51;;;;;;;36.15;5.95;;;9.10;99.90;;;;;;5095844;28;20043;-81
2023/01/05 05:47:37;;;;;;;37.53;6.28;;;9.10;99.90;;;;;;5112701;28;20051;-82
2023/01/05 05:50:23;;;;;;;51.10;8.75;;;9.10;99.90;;;;;;5121612;28;20047;-79
2023/01/05 05:53:09;;;;;;;29.40;5.70;;;9.10;99.90;;;;;;5113391;28;20047;-83
2023/01/05 05:55:55;;;;;;;35.65;7.93;;;9.00;99.90;;;;;;5099851;28;20051;-83
2023/01/05 05:58:42;;;;;;;41.28;8.07;;;9.00;99.90;;;;;;5097121;28;20047;-81
2023/01/05 06:01:28;;;;;;;38.47;7.68;;;9.00;99.90;;;;;;5099425;28;20071;-81
2023/01/05 06:04:14;;;;;;;40.55;7.40;;;9.00;99.90;;;;;;5113787;28;20051;-79
2023/01/05 06:07:00;;;;;;;32.42;7.22;;;9.00;99.90;;;;;;5112982;28;20039;-78
2023/01/05 06:09:47;;;;;;;37.78;8.00;;;9.00;99.90;;;;;;5113977;28;20051;-80
2023/01/05 06:12:33;;;;;;;40.35;7.30;;;9.00;99.90;;;;;;5096417;28;20048;-80
2023/01/05 06:15:20;;;;;;;40.60;8.52;;;8.90;99.90;;;;;;5114962;28;20081;-78
2023/01/05 06:18:06;;;;;;;46.17;9.02;;;9.00;99.90;;;;;;5117254;28;20044;-78
2023/01/05 06:20:53;;;;;;;43.65;7.13;;;8.90;99.90;;;;;;5113148;28;20043;-78
2023/01/05 06:23:39;;;;;;;42.00;8.00;;;8.90;99.90;;;;;;5095269;28;20122;-83
2023/01/05 06:26:25;;;;;;;31.67;5.88;;;9.00;99.90;;;;;;5094687;28;20396;-79
2023/01/05 06:29:11;;;;;;;40.33;7.57;;;8.90;99.90;;;;;;5098870;28;20043;-79
2023/01/05 06:31:58;;;;;;;38.17;7.85;;;8.90;99.90;;;;;;5115062;28;20457;-79
2023/01/05 06:34:44;;;;;;;41.28;6.93;;;9.00;99.90;;;;;;5112613;28;20043;-80
2023/01/05 06:37:30;;;;;;;37.13;7.03;;;9.00;99.90;;;;;;5119739;28;20059;-79
2023/01/05 06:40:16;;;;;;;36.90;7.20;;;8.90;99.90;;;;;;5105792;28;20110;-82
2023/01/05 06:43:02;;;;;;;35.67;6.60;;;9.00;99.90;;;;;;5114756;28;20115;-80
2023/01/05 06:45:48;;;;;;;40.88;7.22;;;9.00;99.90;;;;;;5112671;28;20058;-79
2023/01/05 06:48:34;;;;;;;40.25;7.72;;;9.00;99.90;;;;;;5112924;28;20085;-79
2023/01/05 06:51:20;;;;;;;39.72;8.38;;;8.90;99.90;;;;;;5112694;28;20048;-79
2023/01/05 06:54:07;;;;;;;47.55;8.05;;;8.90;99.90;;;;;;5095050;28;20066;-79
2023/01/05 06:56:53;;;;;;;41.00;7.70;;;8.90;99.90;;;;;;5094892;28;20051;-78
2023/01/05 06:59:39;;;;;;;41.72;8.27;;;8.90;99.90;;;;;;5113277;28;20056;-80
2023/01/05 07:02:26;;;;;;;47.53;8.20;;;8.90;99.90;;;;;;5116180;28;20090;-80
2023/01/05 07:05:12;;;;;;;48.47;8.88;;;8.90;99.90;;;;;;5112524;28;20046;-85
2023/01/05 07:07:58;;;;;;;51.40;9.98;;;8.90;99.90;;;;;;5097738;28;20056;-83
2023/01/05 07:10:44;;;;;;;37.85;6.03;;;8.80;99.90;;;;;;5099570;28;20055;-82
2023/01/05 07:13:30;;;;;;;27.90;5.18;;;8.80;99.90;;;;;;5114225;28;20054;-79
2023/01/05 07:16:17;;;;;;;36.88;5.85;;;8.80;99.90;;;;;;5093986;28;20135;-79
2023/01/05 07:19:03;;;;;;;36.00;7.15;;;8.90;99.90;;;;;;5112764;28;20519;-81
2023/01/05 07:21:50;;;;;;;38.53;6.93;;;8.90;99.90;;;;;;5093699;28;20055;-80
2023/01/05 07:24:36;;;;;;;22.55;5.32;;;8.90;99.90;;;;;;5111596;28;20563;-83
2023/01/05 07:27:22;;;;;;;29.67;5.82;;;8.90;99.90;;;;;;5111696;28;20103;-80
2023/01/05 07:30:09;;;;;;;39.53;5.93;;;8.90;99.90;;;;;;5079312;28;20510;-80
2023/01/05 07:32:59;;;;;;;31.23;6.03;;;8.90;99.90;;;;;;5093339;28;20048;-82
2023/01/05 07:35:46;;;;;;;44.38;7.85;;;8.90;99.90;;;;;;5079842;28;20048;-85
2023/01/05 07:38:32;;;;;;;41.95;6.60;;;8.90;99.90;;;;;;5116948;28;20044;-83
2023/01/05 07:41:18;;;;;;;32.80;5.93;;;8.90;99.90;;;;;;5105431;28;20526;-83
2023/01/05 07:44:05;;;;;;;43.42;7.72;;;8.90;99.90;;;;;;5110944;28;20092;-81
2023/01/05 07:46:52;;;;;;;53.20;7.05;;;8.90;99.90;;;;;;5097398;28;20061;-83
2023/01/05 07:49:38;;;;;;;47.15;7.20;;;8.90;99.90;;;;;;5111921;28;20115;-83
2023/01/05 07:52:27;;;;;;;41.92;7.13;;;8.80;99.90;;;;;;5112594;28;20112;-81
2023/01/05 07:55:13;;;;;;;44.60;7.10;;;8.90;99.90;;;;;;5093876;28;20112;-84
2023/01/05 07:57:59;;;;;;;41.97;8.18;;;8.80;99.90;;;;;;5098399;28;20382;-81
2023/01/05 08:00:45;;;;;;;55.08;10.20;;;8.80;99.90;;;;;;5094526;28;20055;-80
2023/01/05 08:03:32;;;;;;;35.10;5.28;;;8.80;99.90;;;;;;5093724;28;20475;-80
2023/01/05 08:06:19;;;;;;;27.48;5.60;;;8.80;99.90;;;;;;5116611;28;20871;-81
2023/01/05 08:12:10;;;;;;;29.10;4.60;;;8.70;99.90;;;;;;5092145;28;20410;-80
2023/01/05 08:14:56;;;;;;;27.77;3.53;;;8.70;99.90;;;;;;5094864;28;20130;-82
2023/01/05 08:17:42;;;;;;;21.38;2.42;;;8.60;99.90;;;;;;5103287;28;20052;-79
2023/01/05 08:20:28;;;;;;;11.43;2.40;;;8.60;99.90;;;;;;5092605;28;20056;-81
2023/01/05 08:23:14;;;;;;;14.32;2.65;;;8.60;99.90;;;;;;5094677;28;20570;-79
2023/01/05 08:26:27;;;;;;;16.63;3.58;;;8.50;99.90;;;;;;5078938;28;20505;-80
2023/01/05 08:29:13;;;;;;;16.65;2.30;;;8.50;99.90;;;;;;5110126;28;20155;-78
2023/01/05 08:32:01;;;;;;;14.00;2.85;;;8.40;99.90;;;;;;5092908;28;20054;-79
2023/01/05 08:34:47;;;;;;;14.15;2.58;;;8.40;99.90;;;;;;5115868;28;20040;-83
2023/01/05 08:37:33;;;;;;;12.63;2.65;;;8.40;99.90;;;;;;5111663;28;20051;-81
2023/01/05 08:40:19;;;;;;;13.95;3.67;;;8.40;99.90;;;;;;5111557;28;20091;-82
2023/01/05 08:43:06;;;;;;;19.92;3.25;;;8.40;99.90;;;;;;5114677;28;20039;-80
2023/01/05 08:45:52;;;;;;;18.52;3.35;;;8.40;99.90;;;;;;5084004;28;20058;-80
2023/01/05 08:48:38;;;;;;;32.55;3.90;;;8.40;99.90;;;;;;5095906;28;20104;-83
2023/01/05 08:51:24;;;;;;;27.80;3.90;;;8.40;99.90;;;;;;5110263;28;20051;-80
2023/01/05 08:54:11;;;;;;;23.42;3.40;;;8.40;99.90;;;;;;5113258;28;20047;-85
2023/01/05 08:56:57;;;;;;;26.70;4.72;;;8.50;99.90;;;;;;5120542;28;20039;-83
2023/01/05 08:59:43;;;;;;;17.85;3.67;;;8.40;99.90;;;;;;5112576;28;20101;-82
2023/01/05 09:02:29;;;;;;;18.05;3.25;;;8.50;99.90;;;;;;5109729;28;20052;-80
2023/01/05 09:05:16;;;;;;;16.27;3.10;;;8.40;99.90;;;;;;5091315;28;20055;-81
2023/01/05 09:08:03;;;;;;;18.48;3.20;;;8.40;99.90;;;;;;5091240;28;20048;-81
2023/01/05 09:10:49;;;;;;;19.33;2.85;;;8.50;99.90;;;;;;5077181;28;20058;-82
2023/01/05 09:13:36;;;;;;;19.77;2.90;;;8.50;99.90;;;;;;5095404;28;20044;-83
2023/01/05 09:16:25;;;;;;;17.00;3.15;;;8.50;99.90;;;;;;5095171;28;20055;-82
2023/01/05 09:19:12;;;;;;;25.75;4.30;;;8.50;99.90;;;;;;5114462;28;20048;-85
2023/01/05 09:21:58;;;;;;;24.20;3.45;;;8.60;99.90;;;;;;5117858;28;20068;-82
2023/01/05 09:24:45;;;;;;;20.77;3.65;;;8.60;99.90;;;;;;5111798;28;20075;-79
2023/01/05 09:27:31;;;;;;;25.83;5.32;;;8.60;99.90;;;;;;5112188;28;20044;-80
2023/01/05 09:30:19;;;;;;;21.35;2.97;;;8.60;99.90;;;;;;5109265;28;20173;-81
2023/01/05 09:33:05;;;;;;;28.90;4.00;;;8.60;99.90;;;;;;5109736;28;20442;-81
2023/01/05 09:35:54;;;;;;;25.23;3.63;;;8.50;99.90;;;;;;5108677;28;20083;-79
2023/01/05 09:38:41;;;;;;;26.38;3.17;;;8.60;99.90;;;;;;5094591;28;20449;-80
2023/01/05 09:41:45;;;;;;;30.00;4.07;;;8.50;99.90;;;;;;5112637;28;20051;-82
2023/01/05 09:44:39;;;;;;;22.80;3.88;;;8.50;99.90;;;;;;5096928;28;20067;-81
2023/01/05 09:47:31;;;;;;;25.33;4.57;;;8.60;99.90;;;;;;5091820;28;20040;-80
2023/01/05 09:50:20;;;;;;;17.35;2.97;;;8.80;99.90;;;;;;5108667;28;20089;-81
2023/01/05 09:53:07;;;;;;;29.48;4.80;;;9.00;99.90;;;;;;5109175;28;20039;-81
2023/01/05 09:55:54;;;;;;;20.45;3.50;;;9.10;99.90;;;;;;5108235;28;20465;-80
2023/01/05 09:58:43;;;;;;;16.90;3.05;;;9.20;99.90;;;;;;5109746;28;20570;-85
2023/01/05 10:01:32;;;;;;;25.80;3.03;;;9.50;99.90;;;;;;5097791;28;20048;-81
2023/01/05 10:04:21;;;;;;;22.50;3.17;;;9.70;99.90;;;;;;5109284;28;20050;-81
2023/01/05 10:07:31;;;;;;;13.90;2.85;;;9.90;99.90;;;;;;5113364;28;20456;-83
2023/01/05 10:13:01;;;;;;;19.80;3.70;;;10.00;99.90;;;;;;5066430;28;20091;-81
2023/01/05 10:14:23;;;;;;;23.30;4.22;;;10.20;99.90;;;;;;5113209;28;20570;-81
2023/01/05 10:17:18;;;;;;;19.13;2.83;;;9.90;99.90;;;;;;5119179;28;20112;-85
2023/01/05 10:20:31;;;;;;;17.70;2.75;;;9.60;99.90;;;;;;5115014;28;20089;-82
2023/01/05 10:23:25;;;;;;;22.70;2.50;;;9.30;99.90;;;;;;5080044;28;20407;-82
2023/01/05 10:26:28;;;;;;;20.85;2.90;;;9.10;99.90;;;;;;5112348;28;20044;-80
2023/01/05 10:29:24;;;;;;;25.40;2.95;;;9.00;99.90;;;;;;5111340;28;20051;-81
2023/01/05 10:32:10;;;;;;;;;;;9.10;99.90;;;;;;5075956;28;20143;-80
2023/01/05 10:34:59;;;;;;;22.45;3.70;;;9.60;99.90;;;;;;5092469;28;20336;-81
2023/01/05 10:38:24;;;;;;;25.48;3.47;;;9.80;99.90;;;;;;5093004;28;20131;-80
2023/01/05 10:41:31;;;;;;;23.17;4.65;;;9.70;99.90;;;;;;4977168;28;20141;-82
2023/01/05 10:44:32;;;;;;;25.60;4.80;;;9.70;99.90;;;;;;5002079;28;20054;-83
2023/01/05 10:47:20;;;;;;;19.42;2.80;;;9.70;99.90;;;;;;5061064;28;20052;-80
2023/01/05 10:50:32;;;;;;;18.58;3.58;;;9.60;99.90;;;;;;5060661;28;20044;-80
2023/01/05 10:53:24;;;;;;;27.38;5.05;;;9.60;99.90;;;;;;5096894;28;20087;-81
2023/01/05 10:56:28;;;;;;;23.40;3.75;;;9.60;99.90;;;;;;5094607;28;20059;-80
2023/01/05 10:59:14;;;;;;;20.27;3.92;;;9.60;99.90;;;;;;5080174;28;20051;-80
2023/01/05 11:02:00;;;;;;;25.70;4.40;;;9.60;99.90;;;;;;5103399;28;20048;-81
2023/01/05 11:04:48;;;;;;;22.63;3.50;;;9.60;99.90;;;;;;5083342;28;20044;-81
2023/01/05 11:07:47;;;;;;;15.50;3.20;;;9.60;99.90;;;;;;5091816;28;20090;-81
2023/01/05 11:10:38;;;;;;;25.85;4.03;;;9.60;99.90;;;;;;5073004;28;20484;-83
2023/01/05 11:13:38;;;;;;;20.15;3.83;;;9.60;99.90;;;;;;5090880;28;20052;-83
2023/01/05 11:16:31;;;;;;;20.83;3.95;;;9.50;99.90;;;;;;5076138;28;20048;-81
2023/01/05 11:19:25;;;;;;;20.98;2.53;;;9.50;99.90;;;;;;5072227;28;20044;-79
2023/01/05 11:22:37;;;;;;;21.75;2.65;;;9.50;99.90;;;;;;5077339;28;20044;-81
2023/01/05 11:25:31;;;;;;;21.30;2.87;;;9.50;99.90;;;;;;5077044;28;20115;-82
2023/01/05 11:28:18;;;;;;;16.77;3.35;;;9.40;99.90;;;;;;5073792;28;20055;-83
2023/01/05 11:31:05;;;;;;;18.05;2.88;;;9.40;99.90;;;;;;5112779;28;20063;-86
2023/01/05 11:34:00;;;;;;;16.95;2.92;;;9.40;99.90;;;;;;5107639;28;20055;-80
2023/01/05 11:37:04;;;;;;;15.20;3.77;;;9.30;99.90;;;;;;5111191;28;20040;-80
2023/01/05 11:40:02;;;;;;;21.30;3.35;;;9.30;99.90;;;;;;5112122;28;20398;-81
2023/01/05 11:42:51;;;;;;;18.13;2.92;;;9.30;99.90;;;;;;5093535;28;20051;-80
2023/01/05 11:45:44;;;;;;;25.83;3.65;;;9.30;99.90;;;;;;5091880;28;20055;-81
2023/01/05 11:48:34;;;;;;;22.05;3.65;;;9.30;99.90;;;;;;5096490;28;20519;-84
2023/01/05 11:51:53;;;;;;;29.90;6.18;;;9.30;99.90;;;;;;5111407;28;20407;-81
2023/01/05 11:54:39;;;;;;;27.67;4.22;;;9.40;99.90;;;;;;5069755;28;20054;-82
2023/01/05 11:57:26;;;;;;;22.63;6.32;;;9.60;99.90;;;;;;5110408;28;20415;-79
2023/01/05 12:00:51;;;;;;;17.85;3.03;;;9.60;99.90;;;;;;5079290;28;20055;-80
2023/01/05 12:03:56;;;;;;;19.02;3.10;;;9.70;99.90;;;;;;5025381;28;20058;-80
2023/01/05 12:07:11;;;;;;;20.70;3.43;;;9.90;99.90;;;;;;5111275;28;20558;-83
2023/01/05 12:10:16;;;;;;;14.68;3.35;;;10.10;99.90;;;;;;5113417;28;20309;-79
2023/01/05 12:13:02;;;;;;;18.70;3.72;;;10.30;99.90;;;;;;5114639;28;20040;-80
2023/01/05 12:16:07;;;;;;;20.27;3.72;;;10.40;99.90;;;;;;5111764;28;20530;-80
2023/01/05 12:18:53;;;;;;;16.50;4.23;;;10.50;99.90;;;;;;5111151;28;20043;-81
2023/01/05 12:21:48;;;;;;;21.25;3.63;;;10.50;99.90;;;;;;5091590;28;20063;-83
2023/01/05 12:24:44;;;;;;;12.23;2.83;;;10.30;99.90;;;;;;5110612;28;20051;-82
2023/01/05 12:28:07;;;;;;;18.45;3.08;;;10.20;99.90;;;;;;5119325;28;20069;-78
2023/01/05 12:31:05;;;;;;;22.88;4.00;;;10.10;99.90;;;;;;5110016;28;20060;-84
2023/01/05 12:34:06;;;;;;;27.67;4.43;;;10.00;99.90;;;;;;5091464;28;20560;-80
2023/01/05 12:37:18;;;;;;;20.55;4.70;;;10.00;99.90;;;;;;5110148;28;20073;-79
2023/01/05 12:40:14;;;;;;;26.10;4.32;;;10.20;99.90;;;;;;5093353;28;20521;-79
2023/01/05 12:43:19;;;;;;;23.48;4.72;;;10.40;99.90;;;;;;5110229;28;20530;-80
2023/01/05 12:46:11;;;;;;;24.60;4.15;;;10.50;99.90;;;;;;5099276;28;20054;-80
2023/01/05 12:49:05;;;;;;;15.63;3.55;;;10.50;99.90;;;;;;5111290;28;20087;-81
2023/01/05 12:52:02;;;;;;;25.85;3.78;;;10.40;99.90;;;;;;5110893;28;20794;-81
2023/01/05 12:55:00;;;;;;;26.58;4.40;;;10.40;99.90;;;;;;5109820;28;20048;-80
2023/01/05 12:57:57;;;;;;;15.20;3.20;;;10.40;99.90;;;;;;5109500;28;20503;-80
2023/01/05 13:00:46;;;;;;;20.08;3.45;;;10.30;99.90;;;;;;5109984;28;20056;-80
2023/01/05 13:03:46;;;;;;;17.27;3.90;;;10.20;99.90;;;;;;5090158;28;20052;-80
2023/01/05 13:06:38;;;;;;;21.90;3.80;;;10.10;99.90;;;;;;5109928;28;20059;-82
2023/01/05 13:09:29;;;;;;;21.33;3.63;;;10.10;99.90;;;;;;5110891;28;20047;-82
2023/01/05 13:12:15;;;;;;;23.73;4.47;;;10.00;99.90;;;;;;5120901;28;20480;-81
2023/01/05 13:15:14;;;;;;;27.85;4.60;;;10.00;99.90;;;;;;5111692;28;20054;-79
2023/01/05 13:18:04;;;;;;;18.50;3.97;;;10.00;99.90;;;;;;5110704;28;20047;-79
2023/01/05 13:20:58;;;;;;;24.10;4.07;;;10.10;99.90;;;;;;5096202;28;20040;-81
2023/01/05 13:23:52;;;;;;;20.85;3.58;;;10.10;99.90;;;;;;5095034;28;20051;-81
2023/01/05 13:26:38;;;;;;;24.00;5.32;;;10.00;99.90;;;;;;5109901;28;20058;-80
2023/01/05 13:29:58;;;;;;;38.90;5.65;;;9.90;99.90;;;;;;5096526;28;20055;-83
2023/01/05 13:33:13;;;;;;;19.98;3.80;;;9.90;99.90;;;;;;5115814;28;20081;-80
2023/01/05 13:36:11;;;;;;;18.67;3.85;;;9.80;99.90;;;;;;5098161;28;20304;-79
2023/01/05 13:39:04;;;;;;;25.73;4.55;;;9.70;99.90;;;;;;5109701;28;20509;-80
2023/01/05 13:42:00;;;;;;;24.80;4.28;;;9.70;99.90;;;;;;5112423;28;20552;-80
2023/01/05 13:45:07;;;;;;;34.40;4.63;;;9.60;99.90;;;;;;5112668;28;20048;-80
2023/01/05 13:48:12;;;;;;;21.90;3.42;;;9.60;99.90;;;;;;5098352;28;20044;-86
2023/01/05 13:51:23;;;;;;;26.35;3.90;;;9.70;99.90;;;;;;5113473;28;20048;-81
2023/01/05 13:54:18;;;;;;;25.48;3.85;;;9.70;99.90;;;;;;5115093;28;20453;-82
2023/01/05 13:57:08;;;;;;;22.73;3.58;;;9.80;99.90;;;;;;5094579;28;20154;-81
2023/01/05 13:59:59;;;;;;;26.17;3.78;;;9.80;99.90;;;;;;5112971;28;20056;-79
2023/01/05 14:02:59;;;;;;;25.00;4.15;;;9.90;99.90;;;;;;5095447;28;20074;-86
2023/01/05 14:05:46;;;;;;;36.78;6.75;;;9.80;99.90;;;;;;5115994;28;20051;-79
2023/01/05 14:08:36;;;;;;;19.05;4.30;;;9.80;99.90;;;;;;5113083;28;20040;-81
2023/01/05 14:11:25;;;;;;;17.70;3.40;;;9.80;99.90;;;;;;5095307;28;20055;-79
2023/01/05 14:14:55;;;;;;;21.70;3.58;;;9.70;99.90;;;;;;5094433;28;20372;-79
2023/01/05 14:17:50;;;;;;;22.50;4.43;;;9.70;99.90;;;;;;5103811;28;20059;-78
2023/01/05 14:20:45;;;;;;;22.25;4.40;;;9.70;99.90;;;;;;5100648;28;20071;-86
2023/01/05 14:23:31;;;;;;;20.77;4.60;;;9.70;99.90;;;;;;5119688;28;20099;-79
2023/01/05 14:27:09;;;;;;;20.17;4.57;;;9.60;99.90;;;;;;5112014;28;20134;-79
2023/01/05 14:29:56;;;;;;;26.15;4.18;;;9.60;99.90;;;;;;5053082;28;20055;-79
2023/01/05 14:32:43;;;;;;;24.20;5.82;;;9.60;99.90;;;;;;5113197;28;20081;-81
2023/01/05 14:35:33;;;;;;;24.05;4.78;;;9.60;99.90;;;;;;5111755;28;20594;-82
2023/01/05 14:38:23;;;;;;;21.58;4.50;;;9.50;99.90;;;;;;5094328;28;20133;-82
2023/01/05 14:41:22;;;;;;;33.35;4.32;;;9.60;99.90;;;;;;5112755;28;20522;-80
2023/01/05 14:44:21;;;;;;;27.83;4.65;;;9.60;99.90;;;;;;5112780;28;20056;-80
2023/01/05 14:47:08;;;;;;;24.05;4.68;;;9.60;99.90;;;;;;5088051;28;20373;-79
2023/01/05 14:50:02;;;;;;;34.35;6.32;;;9.60;99.90;;;;;;5080583;28;20138;-80
2023/01/05 14:52:55;;;;;;;27.40;4.90;;;9.50;99.90;;;;;;5112239;28;20073;-81
2023/01/05 14:55:50;;;;;;;27.75;5.10;;;9.50;99.90;;;;;;5112381;28;20039;-77
2023/01/05 14:58:42;;;;;;;30.85;5.20;;;9.50;99.90;;;;;;5112044;28;20120;-81
2023/01/05 15:01:36;;;;;;;20.52;4.40;;;9.50;99.90;;;;;;5111565;28;20548;-79
2023/01/05 15:04:36;;;;;;;22.80;4.55;;;9.50;99.90;;;;;;5115270;28;20499;-84
2023/01/05 15:07:41;;;;;;;30.20;4.78;;;9.50;99.90;;;;;;5113340;28;20051;-77
2023/01/05 15:10:54;;;;;;;25.67;4.35;;;9.50;99.90;;;;;;5114784;28;20052;-79
2023/01/05 15:17:14;;;;;;;35.97;5.65;;;9.40;99.90;;;;;;5086783;28;20395;-81
2023/01/05 15:20:23;;;;;;;27.30;5.00;;;9.40;99.90;;;;;;5100900;28;20059;-79
2023/01/05 15:23:09;;;;;;;24.20;4.82;;;9.40;99.90;;;;;;5077698;28;20060;-79
2023/01/05 15:26:32;;;;;;;31.23;4.97;;;9.30;99.90;;;;;;5106222;28;20047;-80
2023/01/05 15:29:39;;;;;;;22.45;3.85;;;9.30;99.90;;;;;;5110298;28;20051;-81